sensor_id;sensor_type;location;lat;lon;timestamp;pressure;altitude;pressure_sealevel;temperature;humidity
52591;BME280;38483;42.620;25.394;2023-01-28T00:01:25;96140.81;;;3.63;69.86
52591;BME280;38483;42.620;25.394;2023-01-28T00:03:52;96143.44;;;3.62;70.76
52591;BME280;38483;42.620;25.394;2023-01-28T00:06:20;96144.22;;;3.64;71.28
52591;BME280;38483;42.620;25.394;2023-01-28T00:08:47;96158.88;;;3.59;70.59
52591;BME280;38483;42.620;25.394;2023-01-28T00:11:14;96160.56;;;3.60;69.69
52591;BME280;38483;42.620;25.394;2023-01-28T00:13:41;96158.88;;;3.59;70.36
52591;BME280;38483;42.620;25.394;2023-01-28T00:16:09;96158.78;;;3.62;79.38
52591;BME280;38483;42.620;25.394;2023-01-28T00:18:36;96167.94;;;3.69;77.04
52591;BME280;38483;42.620;25.394;2023-01-28T00:21:09;96049.53;;;2.87;84.85
52591;BME280;38483;42.620;25.394;2023-01-28T00:23:39;96155.16;;;3.43;85.48
52591;BME280;38483;42.620;25.394;2023-01-28T00:26:10;96166.53;;;3.60;85.58
52591;BME280;38483;42.620;25.394;2023-01-28T00:28:42;96163.53;;;3.48;87.04
52591;BME280;38483;42.620;25.394;2023-01-28T00:31:12;96179.22;;;3.63;86.43
52591;BME280;38483;42.620;25.394;2023-01-28T00:33:43;96166.94;;;3.47;86.31
52591;BME280;38483;42.620;25.394;2023-01-28T00:36:11;96169.31;;;3.53;87.03
52591;BME280;38483;42.620;25.394;2023-01-28T00:38:38;96177.00;;;3.26;85.72
52591;BME280;38483;42.620;25.394;2023-01-28T00:41:11;96187.94;;;3.32;86.71
52591;BME280;38483;42.620;25.394;2023-01-28T00:43:39;96193.59;;;3.41;87.39
52591;BME280;38483;42.620;25.394;2023-01-28T00:46:09;96195.81;;;3.52;86.86
52591;BME280;38483;42.620;25.394;2023-01-28T00:48:38;96191.88;;;3.68;86.59
52591;BME280;38483;42.620;25.394;2023-01-28T00:51:06;96198.94;;;3.86;85.97
52591;BME280;38483;42.620;25.394;2023-01-28T00:53:35;96194.59;;;3.88;84.92
52591;BME280;38483;42.620;25.394;2023-01-28T00:56:07;96203.97;;;3.89;85.29
52591;BME280;38483;42.620;25.394;2023-01-28T00:58:34;96203.34;;;3.82;85.33
52591;BME280;38483;42.620;25.394;2023-01-28T01:01:08;96202.25;;;3.89;83.78
52591;BME280;38483;42.620;25.394;2023-01-28T01:03:36;96198.53;;;3.98;84.68
52591;BME280;38483;42.620;25.394;2023-01-28T01:06:04;96203.41;;;3.79;84.74
52591;BME280;38483;42.620;25.394;2023-01-28T01:08:32;96202.19;;;3.65;85.44
52591;BME280;38483;42.620;25.394;2023-01-28T01:11:07;96198.84;;;3.37;85.66
52591;BME280;38483;42.620;25.394;2023-01-28T01:13:35;96205.84;;;3.32;85.01
52591;BME280;38483;42.620;25.394;2023-01-28T01:16:10;96209.91;;;3.37;87.06
52591;BME280;38483;42.620;25.394;2023-01-28T01:18:38;96207.81;;;3.22;85.66
52591;BME280;38483;42.620;25.394;2023-01-28T01:21:14;96188.94;;;3.26;82.66
52591;BME280;38483;42.620;25.394;2023-01-28T01:23:45;96210.16;;;3.29;84.83
52591;BME280;38483;42.620;25.394;2023-01-28T01:26:13;96207.59;;;3.29;86.13
52591;BME280;38483;42.620;25.394;2023-01-28T01:28:40;96211.03;;;3.55;86.32
52591;BME280;38483;42.620;25.394;2023-01-28T01:31:19;96208.13;;;3.67;85.55
52591;BME280;38483;42.620;25.394;2023-01-28T01:33:48;96207.63;;;3.56;85.33
52591;BME280;38483;42.620;25.394;2023-01-28T01:36:16;96205.06;;;3.56;84.40
52591;BME280;38483;42.620;25.394;2023-01-28T01:38:44;96206.63;;;3.60;85.27
52591;BME280;38483;42.620;25.394;2023-01-28T01:41:31;96211.31;;;3.47;85.63
52591;BME280;38483;42.620;25.394;2023-01-28T01:44:00;96218.47;;;3.36;86.19
52591;BME280;38483;42.620;25.394;2023-01-28T01:49:05;96222.78;;;3.34;82.77
52591;BME280;38483;42.620;25.394;2023-01-28T01:51:35;96222.44;;;3.46;82.53
52591;BME280;38483;42.620;25.394;2023-01-28T01:54:03;96225.63;;;3.53;84.47
52591;BME280;38483;42.620;25.394;2023-01-28T01:56:35;96228.69;;;3.64;84.87
52591;BME280;38483;42.620;25.394;2023-01-28T01:59:09;96238.28;;;3.57;85.68
52591;BME280;38483;42.620;25.394;2023-01-28T02:01:38;96225.41;;;3.59;86.09
52591;BME280;38483;42.620;25.394;2023-01-28T02:04:12;96230.19;;;3.43;84.27
52591;BME280;38483;42.620;25.394;2023-01-28T02:06:45;96225.16;;;3.40;86.26
52591;BME280;38483;42.620;25.394;2023-01-28T02:09:28;96228.81;;;3.59;82.59
52591;BME280;38483;42.620;25.394;2023-01-28T02:11:59;96237.06;;;3.69;82.15
52591;BME280;38483;42.620;25.394;2023-01-28T02:14:29;96245.63;;;3.68;80.77
52591;BME280;38483;42.620;25.394;2023-01-28T02:17:18;96245.69;;;3.65;80.61
52591;BME280;38483;42.620;25.394;2023-01-28T02:28:25;96242.34;;;3.63;84.91
52591;BME280;38483;42.620;25.394;2023-01-28T02:31:22;96249.38;;;3.58;85.51
52591;BME280;38483;42.620;25.394;2023-01-28T02:33:58;96233.00;;;3.36;82.08
52591;BME280;38483;42.620;25.394;2023-01-28T02:36:51;96251.38;;;3.48;83.43
52591;BME280;38483;42.620;25.394;2023-01-28T02:39:24;96239.03;;;3.33;84.48
52591;BME280;38483;42.620;25.394;2023-01-28T02:42:27;96239.69;;;3.12;86.60
52591;BME280;38483;42.620;25.394;2023-01-28T02:44:55;96260.38;;;3.04;87.14
52591;BME280;38483;42.620;25.394;2023-01-28T02:47:22;96250.66;;;3.15;88.28
52591;BME280;38483;42.620;25.394;2023-01-28T02:50:13;96243.63;;;3.23;87.14
52591;BME280;38483;42.620;25.394;2023-01-28T03:04:01;96254.28;;;3.08;75.57
52591;BME280;38483;42.620;25.394;2023-01-28T03:06:43;96254.59;;;2.98;74.44
52591;BME280;38483;42.620;25.394;2023-01-28T03:09:13;96267.44;;;2.95;74.05
52591;BME280;38483;42.620;25.394;2023-01-28T03:12:06;96274.44;;;2.90;73.45
52591;BME280;38483;42.620;25.394;2023-01-28T03:15:00;96260.00;;;2.87;73.61
52591;BME280;38483;42.620;25.394;2023-01-28T03:17:53;96259.50;;;2.75;74.26
52591;BME280;38483;42.620;25.394;2023-01-28T03:20:56;96269.38;;;2.87;73.70
52591;BME280;38483;42.620;25.394;2023-01-28T03:24:05;96266.72;;;2.91;72.67
52591;BME280;38483;42.620;25.394;2023-01-28T03:26:57;96271.78;;;2.93;72.33
52591;BME280;38483;42.620;25.394;2023-01-28T03:29:59;96247.47;;;2.78;72.81
52591;BME280;38483;42.620;25.394;2023-01-28T03:32:45;96267.78;;;2.84;73.42
52591;BME280;38483;42.620;25.394;2023-01-28T03:35:34;96263.88;;;2.71;72.54
52591;BME280;38483;42.620;25.394;2023-01-28T03:38:22;96267.47;;;2.64;73.39
52591;BME280;38483;42.620;25.394;2023-01-28T03:40:54;96272.59;;;2.64;73.50
52591;BME280;38483;42.620;25.394;2023-01-28T03:43:22;96265.13;;;2.57;73.54
52591;BME280;38483;42.620;25.394;2023-01-28T03:45:49;96266.09;;;2.53;73.49
52591;BME280;38483;42.620;25.394;2023-01-28T03:48:18;96279.72;;;2.53;73.20
52591;BME280;38483;42.620;25.394;2023-01-28T03:50:46;96263.38;;;2.59;73.29
52591;BME280;38483;42.620;25.394;2023-01-28T03:53:14;96253.38;;;2.51;73.15
52591;BME280;38483;42.620;25.394;2023-01-28T03:55:51;96281.31;;;2.57;73.52
52591;BME280;38483;42.620;25.394;2023-01-28T03:58:19;96275.47;;;2.52;73.55
52591;BME280;38483;42.620;25.394;2023-01-28T04:00:49;96225.75;;;2.33;73.35
52591;BME280;38483;42.620;25.394;2023-01-28T04:03:18;96275.31;;;2.58;73.44
52591;BME280;38483;42.620;25.394;2023-01-28T04:06:06;96290.00;;;2.50;73.70
52591;BME280;38483;42.620;25.394;2023-01-28T04:08:50;96296.88;;;2.48;74.58
52591;BME280;38483;42.620;25.394;2023-01-28T04:11:30;96296.06;;;2.46;74.61
52591;BME280;38483;42.620;25.394;2023-01-28T04:14:00;96278.34;;;2.40;75.00
52591;BME280;38483;42.620;25.394;2023-01-28T04:16:39;96294.28;;;2.49;73.89
52591;BME280;38483;42.620;25.394;2023-01-28T04:19:10;96303.34;;;2.61;74.01
52591;BME280;38483;42.620;25.394;2023-01-28T04:21:41;96314.53;;;2.57;74.16
52591;BME280;38483;42.620;25.394;2023-01-28T04:24:09;96298.47;;;2.52;73.81
52591;BME280;38483;42.620;25.394;2023-01-28T04:26:36;96303.75;;;2.46;74.33
52591;BME280;38483;42.620;25.394;2023-01-28T04:29:04;96305.34;;;2.50;73.87
52591;BME280;38483;42.620;25.394;2023-01-28T04:31:33;96313.06;;;2.48;73.52
52591;BME280;38483;42.620;25.394;2023-01-28T04:34:23;96309.84;;;2.40;74.24
52591;BME280;38483;42.620;25.394;2023-01-28T04:37:13;96319.06;;;2.46;74.09
52591;BME280;38483;42.620;25.394;2023-01-28T04:39:44;96319.81;;;2.49;73.33
52591;BME280;38483;42.620;25.394;2023-01-28T04:42:38;96322.53;;;2.45;74.13
52591;BME280;38483;42.620;25.394;2023-01-28T04:45:23;96319.38;;;2.34;74.03
52591;BME280;38483;42.620;25.394;2023-01-28T04:47:58;96334.59;;;2.38;74.85
52591;BME280;38483;42.620;25.394;2023-01-28T04:50:51;96343.94;;;2.39;74.32
52591;BME280;38483;42.620;25.394;2023-01-28T04:53:45;96326.09;;;2.38;73.98
52591;BME280;38483;42.620;25.394;2023-01-28T04:56:38;96332.06;;;2.38;73.97
52591;BME280;38483;42.620;25.394;2023-01-28T04:59:06;96333.81;;;2.36;73.88
52591;BME280;38483;42.620;25.394;2023-01-28T05:01:34;96327.06;;;2.34;72.99
52591;BME280;38483;42.620;25.394;2023-01-28T05:04:02;96339.66;;;2.40;73.77
52591;BME280;38483;42.620;25.394;2023-01-28T05:06:34;96333.19;;;2.27;74.03
52591;BME280;38483;42.620;25.394;2023-01-28T05:09:08;96331.63;;;2.21;72.67
52591;BME280;38483;42.620;25.394;2023-01-28T05:11:35;96306.50;;;2.05;73.43
52591;BME280;38483;42.620;25.394;2023-01-28T05:14:06;96348.59;;;2.24;72.90
52591;BME280;38483;42.620;25.394;2023-01-28T05:16:40;96345.94;;;2.27;72.83
52591;BME280;38483;42.620;25.394;2023-01-28T05:19:07;96348.78;;;2.16;72.82
52591;BME280;38483;42.620;25.394;2023-01-28T05:21:39;96341.94;;;2.18;72.19
52591;BME280;38483;42.620;25.394;2023-01-28T05:24:45;96359.50;;;2.30;72.44
52591;BME280;38483;42.620;25.394;2023-01-28T05:27:12;96360.25;;;2.34;72.29
52591;BME280;38483;42.620;25.394;2023-01-28T05:29:40;96343.50;;;2.24;72.83
52591;BME280;38483;42.620;25.394;2023-01-28T05:32:07;96363.97;;;2.22;73.30
52591;BME280;38483;42.620;25.394;2023-01-28T05:34:35;96367.19;;;2.29;72.60
52591;BME280;38483;42.620;25.394;2023-01-28T05:37:08;96367.28;;;2.26;72.05
52591;BME280;38483;42.620;25.394;2023-01-28T05:39:37;96367.97;;;2.31;72.33
52591;BME280;38483;42.620;25.394;2023-01-28T05:42:04;96386.81;;;2.27;72.51
52591;BME280;38483;42.620;25.394;2023-01-28T05:44:33;96350.25;;;2.25;72.00
52591;BME280;38483;42.620;25.394;2023-01-28T05:47:19;96375.38;;;2.43;72.62
52591;BME280;38483;42.620;25.394;2023-01-28T05:50:05;96385.69;;;2.38;73.23
52591;BME280;38483;42.620;25.394;2023-01-28T05:52:42;96376.34;;;2.37;72.24
52591;BME280;38483;42.620;25.394;2023-01-28T05:55:18;96398.28;;;2.46;72.41
52591;BME280;38483;42.620;25.394;2023-01-28T05:57:47;96397.47;;;2.44;72.58
52591;BME280;38483;42.620;25.394;2023-01-28T06:00:17;96395.56;;;2.52;72.14
52591;BME280;38483;42.620;25.394;2023-01-28T06:02:45;96397.41;;;2.47;71.82
52591;BME280;38483;42.620;25.394;2023-01-28T06:05:14;96390.75;;;2.40;71.61
52591;BME280;38483;42.620;25.394;2023-01-28T06:07:45;96394.22;;;2.39;71.54
52591;BME280;38483;42.620;25.394;2023-01-28T06:10:13;96403.50;;;2.41;71.56
52591;BME280;38483;42.620;25.394;2023-01-28T06:12:42;96410.34;;;2.39;71.63
52591;BME280;38483;42.620;25.394;2023-01-28T06:15:27;96408.66;;;2.40;71.26
52591;BME280;38483;42.620;25.394;2023-01-28T06:18:30;96419.47;;;2.51;71.10
52591;BME280;38483;42.620;25.394;2023-01-28T06:20:57;96430.97;;;2.67;70.53
52591;BME280;38483;42.620;25.394;2023-01-28T06:23:25;96431.66;;;2.74;68.97
52591;BME280;38483;42.620;25.394;2023-01-28T06:25:56;96430.09;;;2.68;69.32
52591;BME280;38483;42.620;25.394;2023-01-28T06:28:24;96434.34;;;2.69;69.29
52591;BME280;38483;42.620;25.394;2023-01-28T06:30:52;96437.31;;;2.86;68.57
52591;BME280;38483;42.620;25.394;2023-01-28T06:33:19;96443.88;;;2.95;69.55
52591;BME280;38483;42.620;25.394;2023-01-28T06:35:47;96441.19;;;3.01;69.18
52591;BME280;38483;42.620;25.394;2023-01-28T06:38:14;96443.50;;;3.10;68.24
52591;BME280;38483;42.620;25.394;2023-01-28T06:40:41;96432.91;;;3.23;68.55
52591;BME280;38483;42.620;25.394;2023-01-28T06:43:08;96429.59;;;3.20;68.26
52591;BME280;38483;42.620;25.394;2023-01-28T06:45:35;96424.75;;;3.09;66.77
52591;BME280;38483;42.620;25.394;2023-01-28T06:48:03;96440.81;;;3.14;68.69
52591;BME280;38483;42.620;25.394;2023-01-28T06:50:32;96440.53;;;3.25;67.79
52591;BME280;38483;42.620;25.394;2023-01-28T06:52:59;96437.69;;;3.36;68.47
52591;BME280;38483;42.620;25.394;2023-01-28T06:55:26;96446.34;;;3.32;70.23
52591;BME280;38483;42.620;25.394;2023-01-28T06:57:53;96432.88;;;3.25;72.46
52591;BME280;38483;42.620;25.394;2023-01-28T07:00:20;96452.38;;;3.60;73.10
52591;BME280;38483;42.620;25.394;2023-01-28T07:02:48;96450.31;;;3.72;71.47
52591;BME280;38483;42.620;25.394;2023-01-28T07:05:15;96454.44;;;3.76;68.38
52591;BME280;38483;42.620;25.394;2023-01-28T07:07:42;96449.84;;;3.58;67.07
52591;BME280;38483;42.620;25.394;2023-01-28T07:10:11;96451.34;;;3.65;68.02
52591;BME280;38483;42.620;25.394;2023-01-28T07:12:38;96447.66;;;3.45;68.32
52591;BME280;38483;42.620;25.394;2023-01-28T07:15:06;96443.91;;;3.58;66.89
52591;BME280;38483;42.620;25.394;2023-01-28T07:17:33;96462.72;;;3.55;67.61
52591;BME280;38483;42.620;25.394;2023-01-28T07:20:00;96458.13;;;3.37;67.74
52591;BME280;38483;42.620;25.394;2023-01-28T07:22:29;96466.53;;;3.41;67.87
52591;BME280;38483;42.620;25.394;2023-01-28T07:24:56;96470.00;;;3.40;67.88
52591;BME280;38483;42.620;25.394;2023-01-28T07:27:24;96475.13;;;3.40;67.36
52591;BME280;38483;42.620;25.394;2023-01-28T07:29:51;96470.06;;;3.37;67.65
52591;BME280;38483;42.620;25.394;2023-01-28T07:32:18;96467.34;;;3.43;67.34
52591;BME280;38483;42.620;25.394;2023-01-28T07:34:45;96481.16;;;3.37;67.82
52591;BME280;38483;42.620;25.394;2023-01-28T07:37:12;96481.19;;;3.36;68.45
52591;BME280;38483;42.620;25.394;2023-01-28T07:39:39;96477.56;;;3.43;68.72
52591;BME280;38483;42.620;25.394;2023-01-28T07:42:07;96484.38;;;3.44;68.69
52591;BME280;38483;42.620;25.394;2023-01-28T07:44:37;96492.25;;;3.36;68.63
52591;BME280;38483;42.620;25.394;2023-01-28T07:47:05;96495.16;;;3.55;68.04
52591;BME280;38483;42.620;25.394;2023-01-28T07:49:34;96484.22;;;3.50;68.13
52591;BME280;38483;42.620;25.394;2023-01-28T07:52:01;96490.03;;;3.55;67.65
52591;BME280;38483;42.620;25.394;2023-01-28T07:54:29;96497.13;;;3.76;67.61
52591;BME280;38483;42.620;25.394;2023-01-28T07:56:56;96496.34;;;3.74;66.28
52591;BME280;38483;42.620;25.394;2023-01-28T07:59:22;96514.19;;;3.77;66.11
52591;BME280;38483;42.620;25.394;2023-01-28T08:01:50;96500.72;;;3.70;66.58
52591;BME280;38483;42.620;25.394;2023-01-28T08:04:20;96500.44;;;3.79;66.23
52591;BME280;38483;42.620;25.394;2023-01-28T08:06:47;96503.44;;;3.95;65.86
52591;BME280;38483;42.620;25.394;2023-01-28T08:09:15;96503.59;;;3.89;65.34
52591;BME280;38483;42.620;25.394;2023-01-28T08:11:42;96505.50;;;3.82;65.02
52591;BME280;38483;42.620;25.394;2023-01-28T08:14:10;96503.66;;;3.86;65.51
52591;BME280;38483;42.620;25.394;2023-01-28T08:16:37;96486.66;;;3.83;65.50
52591;BME280;38483;42.620;25.394;2023-01-28T08:19:24;96508.97;;;4.09;64.89
52591;BME280;38483;42.620;25.394;2023-01-28T08:22:44;96515.81;;;4.38;63.29
52591;BME280;38483;42.620;25.394;2023-01-28T08:26:05;96524.78;;;4.52;63.46
52591;BME280;38483;42.620;25.394;2023-01-28T08:29:26;96510.88;;;4.32;63.47
52591;BME280;38483;42.620;25.394;2023-01-28T08:32:29;96523.91;;;4.52;63.32
52591;BME280;38483;42.620;25.394;2023-01-28T08:34:58;96538.41;;;4.80;62.77
52591;BME280;38483;42.620;25.394;2023-01-28T08:37:26;96538.19;;;4.88;62.91
52591;BME280;38483;42.620;25.394;2023-01-28T08:39:53;96527.34;;;4.78;62.45
52591;BME280;38483;42.620;25.394;2023-01-28T08:42:21;96519.47;;;4.84;61.30
52591;BME280;38483;42.620;25.394;2023-01-28T08:44:48;96497.09;;;4.63;62.52
52591;BME280;38483;42.620;25.394;2023-01-28T08:47:15;96537.88;;;4.97;62.24
52591;BME280;38483;42.620;25.394;2023-01-28T08:49:42;96552.31;;;5.26;62.60
52591;BME280;38483;42.620;25.394;2023-01-28T08:52:09;96554.09;;;5.25;61.80
52591;BME280;38483;42.620;25.394;2023-01-28T08:54:36;96549.75;;;5.27;62.47
52591;BME280;38483;42.620;25.394;2023-01-28T08:57:04;96556.09;;;5.42;61.89
52591;BME280;38483;42.620;25.394;2023-01-28T08:59:33;96546.06;;;5.59;61.24
52591;BME280;38483;42.620;25.394;2023-01-28T09:02:00;96541.28;;;5.73;61.61
52591;BME280;38483;42.620;25.394;2023-01-28T09:04:28;96550.75;;;5.72;61.84
52591;BME280;38483;42.620;25.394;2023-01-28T09:06:55;96554.34;;;5.67;62.36
52591;BME280;38483;42.620;25.394;2023-01-28T09:09:25;96520.66;;;5.27;62.28
52591;BME280;38483;42.620;25.394;2023-01-28T09:11:52;96558.44;;;5.48;62.50
52591;BME280;38483;42.620;25.394;2023-01-28T09:14:19;96521.44;;;5.29;64.95
52591;BME280;38483;42.620;25.394;2023-01-28T09:16:47;96542.47;;;5.40;66.54
52591;BME280;38483;42.620;25.394;2023-01-28T09:19:14;96555.75;;;5.51;65.70
52591;BME280;38483;42.620;25.394;2023-01-28T09:21:42;96560.78;;;5.29;64.91
52591;BME280;38483;42.620;25.394;2023-01-28T09:24:13;96556.19;;;5.39;65.48
52591;BME280;38483;42.620;25.394;2023-01-28T09:26:40;96526.06;;;5.44;65.49
52591;BME280;38483;42.620;25.394;2023-01-28T09:29:07;96549.84;;;5.98;64.79
52591;BME280;38483;42.620;25.394;2023-01-28T09:31:34;96543.00;;;5.99;60.79
52591;BME280;38483;42.620;25.394;2023-01-28T09:34:01;96545.84;;;5.91;59.99
52591;BME280;38483;42.620;25.394;2023-01-28T09:36:29;96546.84;;;6.10;59.71
52591;BME280;38483;42.620;25.394;2023-01-28T09:38:57;96556.06;;;6.39;61.52
52591;BME280;38483;42.620;25.394;2023-01-28T09:46:59;96563.59;;;6.67;58.93
52591;BME280;38483;42.620;25.394;2023-01-28T09:49:44;96568.25;;;6.79;59.01
52591;BME280;38483;42.620;25.394;2023-01-28T09:52:16;96569.72;;;6.86;59.04
52591;BME280;38483;42.620;25.394;2023-01-28T09:55:00;96570.31;;;6.92;58.89
52591;BME280;38483;42.620;25.394;2023-01-28T09:57:40;96564.81;;;6.80;58.50
52591;BME280;38483;42.620;25.394;2023-01-28T10:00:20;96578.84;;;6.71;58.20
52591;BME280;38483;42.620;25.394;2023-01-28T10:17:16;96566.16;;;6.20;59.92
52591;BME280;38483;42.620;25.394;2023-01-28T10:19:49;96561.47;;;6.08;59.86
52591;BME280;38483;42.620;25.394;2023-01-28T10:22:22;96553.31;;;6.20;60.38
52591;BME280;38483;42.620;25.394;2023-01-28T10:25:04;96561.03;;;6.43;61.08
52591;BME280;38483;42.620;25.394;2023-01-28T10:27:34;96553.72;;;6.33;60.30
52591;BME280;38483;42.620;25.394;2023-01-28T10:30:26;96557.59;;;6.44;59.71
52591;BME280;38483;42.620;25.394;2023-01-28T10:35:54;96567.94;;;6.65;58.50
52591;BME280;38483;42.620;25.394;2023-01-28T10:38:25;96554.38;;;6.61;58.87
52591;BME280;38483;42.620;25.394;2023-01-28T10:40:58;96556.84;;;6.41;58.00
52591;BME280;38483;42.620;25.394;2023-01-28T10:43:30;96548.69;;;6.53;57.66
52591;BME280;38483;42.620;25.394;2023-01-28T10:48:34;96560.34;;;6.62;57.75
52591;BME280;38483;42.620;25.394;2023-01-28T10:51:04;96557.41;;;6.49;58.27
52591;BME280;38483;42.620;25.394;2023-01-28T10:53:40;96561.88;;;6.21;58.91
52591;BME280;38483;42.620;25.394;2023-01-28T10:56:26;96573.78;;;6.23;58.69
52591;BME280;38483;42.620;25.394;2023-01-28T11:04:15;96519.03;;;6.21;57.72
52591;BME280;38483;42.620;25.394;2023-01-28T11:07:17;96555.44;;;6.55;57.23
52591;BME280;38483;42.620;25.394;2023-01-28T11:09:48;96549.59;;;6.74;56.56
52591;BME280;38483;42.620;25.394;2023-01-28T11:12:21;96557.66;;;7.08;56.08
52591;BME280;38483;42.620;25.394;2023-01-28T11:14:54;96539.94;;;7.22;55.62
52591;BME280;38483;42.620;25.394;2023-01-28T11:17:23;96543.69;;;7.13;56.34
52591;BME280;38483;42.620;25.394;2023-01-28T11:19:58;96550.81;;;7.28;57.00
52591;BME280;38483;42.620;25.394;2023-01-28T11:22:34;96545.41;;;7.34;56.40
52591;BME280;38483;42.620;25.394;2023-01-28T11:25:13;96543.19;;;7.47;56.68
52591;BME280;38483;42.620;25.394;2023-01-28T11:27:47;96543.84;;;7.52;55.45
52591;BME280;38483;42.620;25.394;2023-01-28T11:30:25;96546.69;;;7.24;56.81
52591;BME280;38483;42.620;25.394;2023-01-28T11:33:18;96546.06;;;7.39;57.72
52591;BME280;38483;42.620;25.394;2023-01-28T11:35:55;96540.28;;;7.55;56.52
52591;BME280;38483;42.620;25.394;2023-01-28T11:38:24;96548.69;;;7.38;56.18
52591;BME280;38483;42.620;25.394;2023-01-28T11:40:53;96530.81;;;7.13;56.98
52591;BME280;38483;42.620;25.394;2023-01-28T11:43:25;96535.28;;;7.30;56.16
52591;BME280;38483;42.620;25.394;2023-01-28T11:51:37;96559.34;;;7.09;57.12
52591;BME280;38483;42.620;25.394;2023-01-28T12:00:23;96561.53;;;7.18;55.88
52591;BME280;38483;42.620;25.394;2023-01-28T12:13:58;96565.78;;;7.61;54.13
52591;BME280;38483;42.620;25.394;2023-01-28T12:16:30;96560.50;;;7.64;53.90
52591;BME280;38483;42.620;25.394;2023-01-28T12:22:02;96568.06;;;7.05;57.66
52591;BME280;38483;42.620;25.394;2023-01-28T12:30:48;96574.09;;;7.25;56.55
52591;BME280;38483;42.620;25.394;2023-01-28T12:45:00;96592.81;;;7.30;55.29
52591;BME280;38483;42.620;25.394;2023-01-28T12:47:34;96582.47;;;7.10;56.45
52591;BME280;38483;42.620;25.394;2023-01-28T12:50:15;96587.59;;;7.10;56.69
52591;BME280;38483;42.620;25.394;2023-01-28T12:52:52;96605.13;;;6.79;57.92
52591;BME280;38483;42.620;25.394;2023-01-28T12:57:52;96604.66;;;6.46;59.36
52591;BME280;38483;42.620;25.394;2023-01-28T13:00:32;96620.72;;;6.75;57.57
52591;BME280;38483;42.620;25.394;2023-01-28T13:03:25;96618.78;;;6.35;57.78
52591;BME280;38483;42.620;25.394;2023-01-28T13:06:01;96617.84;;;6.61;58.09
52591;BME280;38483;42.620;25.394;2023-01-28T13:08:29;96626.00;;;6.48;59.15
52591;BME280;38483;42.620;25.394;2023-01-28T13:10:59;96625.22;;;6.46;59.56
52591;BME280;38483;42.620;25.394;2023-01-28T13:13:38;96624.16;;;6.04;60.24
52591;BME280;38483;42.620;25.394;2023-01-28T13:16:07;96628.84;;;5.67;59.94
52591;BME280;38483;42.620;25.394;2023-01-28T13:24:16;96603.88;;;5.46;61.06
52591;BME280;38483;42.620;25.394;2023-01-28T13:26:47;96641.84;;;5.62;60.69
52591;BME280;38483;42.620;25.394;2023-01-28T13:31:48;96652.47;;;5.52;61.68
52591;BME280;38483;42.620;25.394;2023-01-28T13:34:55;96659.91;;;5.59;62.26
52591;BME280;38483;42.620;25.394;2023-01-28T13:37:36;96658.88;;;5.65;61.62
52591;BME280;38483;42.620;25.394;2023-01-28T13:42:36;96671.16;;;5.29;62.23
52591;BME280;38483;42.620;25.394;2023-01-28T13:47:46;96683.91;;;5.05;61.55
52591;BME280;38483;42.620;25.394;2023-01-28T13:50:19;96681.84;;;4.88;61.74
52591;BME280;38483;42.620;25.394;2023-01-28T13:53:01;96674.81;;;4.94;62.95
52591;BME280;38483;42.620;25.394;2023-01-28T13:55:37;96676.53;;;4.94;64.28
52591;BME280;38483;42.620;25.394;2023-01-28T14:01:19;96690.53;;;5.12;63.56
52591;BME280;38483;42.620;25.394;2023-01-28T14:06:27;96688.19;;;5.04;63.62
52591;BME280;38483;42.620;25.394;2023-01-28T14:20:02;96695.91;;;4.75;63.55
52591;BME280;38483;42.620;25.394;2023-01-28T14:22:29;96679.94;;;4.65;64.28
52591;BME280;38483;42.620;25.394;2023-01-28T14:24:59;96692.75;;;4.65;65.11
52591;BME280;38483;42.620;25.394;2023-01-28T14:27:36;96676.44;;;4.68;64.83
52591;BME280;38483;42.620;25.394;2023-01-28T14:32:59;96694.38;;;4.68;64.85
52591;BME280;38483;42.620;25.394;2023-01-28T14:35:32;96684.41;;;4.59;65.13
52591;BME280;38483;42.620;25.394;2023-01-28T14:38:06;96706.31;;;4.69;65.17
52591;BME280;38483;42.620;25.394;2023-01-28T14:40:38;96701.09;;;4.43;66.24
52591;BME280;38483;42.620;25.394;2023-01-28T14:43:07;96702.75;;;4.44;67.48
52591;BME280;38483;42.620;25.394;2023-01-28T14:48:33;96714.81;;;4.40;67.53
52591;BME280;38483;42.620;25.394;2023-01-28T14:59:55;96723.81;;;4.24;68.62
52591;BME280;38483;42.620;25.394;2023-01-28T15:02:26;96730.69;;;4.22;69.04
52591;BME280;38483;42.620;25.394;2023-01-28T15:04:54;96732.19;;;4.31;69.83
52591;BME280;38483;42.620;25.394;2023-01-28T15:07:23;96733.28;;;4.53;68.89
52591;BME280;38483;42.620;25.394;2023-01-28T15:12:37;96727.88;;;4.31;68.48
52591;BME280;38483;42.620;25.394;2023-01-28T15:15:10;96735.13;;;4.16;69.58
52591;BME280;38483;42.620;25.394;2023-01-28T15:17:39;96747.72;;;4.23;70.28
52591;BME280;38483;42.620;25.394;2023-01-28T15:20:07;96742.78;;;4.17;69.31
52591;BME280;38483;42.620;25.394;2023-01-28T15:22:34;96748.09;;;4.09;70.19
52591;BME280;38483;42.620;25.394;2023-01-28T15:25:04;96743.25;;;3.99;71.20
52591;BME280;38483;42.620;25.394;2023-01-28T15:27:32;96754.00;;;3.78;71.54
52591;BME280;38483;42.620;25.394;2023-01-28T15:29:59;96745.38;;;3.82;71.49
52591;BME280;38483;42.620;25.394;2023-01-28T15:32:30;96758.59;;;3.64;72.14
52591;BME280;38483;42.620;25.394;2023-01-28T15:34:59;96754.56;;;3.54;72.67
52591;BME280;38483;42.620;25.394;2023-01-28T15:37:28;96763.78;;;3.62;72.63
52591;BME280;38483;42.620;25.394;2023-01-28T15:40:00;96762.97;;;3.60;73.05
52591;BME280;38483;42.620;25.394;2023-01-28T15:42:29;96767.38;;;3.54;73.32
52591;BME280;38483;42.620;25.394;2023-01-28T15:44:59;96780.34;;;3.46;72.68
52591;BME280;38483;42.620;25.394;2023-01-28T15:47:32;96771.03;;;3.42;72.96
52591;BME280;38483;42.620;25.394;2023-01-28T15:50:06;96782.94;;;3.45;72.88
52591;BME280;38483;42.620;25.394;2023-01-28T15:52:38;96788.13;;;3.40;72.83
52591;BME280;38483;42.620;25.394;2023-01-28T15:55:19;96767.84;;;3.33;72.30
52591;BME280;38483;42.620;25.394;2023-01-28T15:57:54;96787.91;;;3.51;72.44
52591;BME280;38483;42.620;25.394;2023-01-28T16:00:22;96789.72;;;3.47;72.98